createdAt,value
2022-09-23T04:02:01.813Z,98938.31
2022-09-23T04:06:13.386Z,98932.03
2022-09-23T04:10:24.893Z,98926.84
2022-09-23T04:14:36.346Z,98933.34
2022-09-23T04:18:48.604Z,98924.66
2022-09-23T04:23:00.023Z,98928.44
2022-09-23T04:27:11.467Z,98928.19
2022-09-23T04:31:23.784Z,98927.78
2022-09-23T04:35:39.957Z,98927.31
2022-09-23T04:39:51.734Z,98928.38
2022-09-23T04:44:04.215Z,98928.66
2022-09-23T04:48:16.101Z,98927.69
2022-09-23T04:52:27.606Z,98931.38
2022-09-23T04:56:39.715Z,98936.81
2022-09-23T05:00:51.274Z,98933.13
2022-09-23T05:05:02.812Z,98935.97
2022-09-23T05:09:17.296Z,98937.88
2022-09-23T05:13:28.749Z,98939.91
2022-09-23T05:17:40.266Z,98937.81
2022-09-23T05:21:51.694Z,98943.41
2022-09-23T05:26:06.619Z,98936.38
2022-09-23T05:30:18.038Z,98943.06
2022-09-23T05:34:29.461Z,98938.69
2022-09-23T05:38:41.045Z,98942.81
2022-09-23T05:42:52.544Z,98941.72
2022-09-23T05:47:04.206Z,98940.38
2022-09-23T05:51:30.177Z,98946.81
2022-09-23T05:55:42.322Z,98945.94
2022-09-23T05:59:53.766Z,98943.25
2022-09-23T06:04:07.586Z,98954.19
2022-09-23T06:08:19.251Z,98943.47
2022-09-23T06:12:31.418Z,98941.31
2022-09-23T06:16:43.104Z,98934.13
2022-09-23T06:20:54.592Z,98931.44
2022-09-23T06:25:06.154Z,98934.59
2022-09-23T06:29:18.314Z,98928.88
2022-09-23T06:33:36.528Z,98933.94
2022-09-23T06:37:48.811Z,98929.06
2022-09-23T06:42:00.290Z,98934.94
2022-09-23T06:46:15.644Z,98941.91
2022-09-23T06:50:27.718Z,98945.47
2022-09-23T06:54:39.223Z,98950.22
2022-09-23T06:58:51.983Z,98948.25
2022-09-23T07:03:10.076Z,98951.47
2022-09-23T07:07:21.560Z,98946.56
2022-09-23T07:11:33.271Z,98949.88
2022-09-23T07:16:11.702Z,98952.06
2022-09-23T07:20:23.428Z,98954.38
2022-09-23T07:24:34.986Z,98948.69
2022-09-23T07:28:46.499Z,98948.00
2022-09-23T07:32:58.029Z,98951.28
2022-09-23T07:37:10.532Z,98951.31
2022-09-23T07:41:22.003Z,98951.16
2022-09-23T07:45:34.105Z,98950.22
2022-09-23T07:49:45.575Z,98960.97
2022-09-23T07:53:57.170Z,98954.84
2022-09-23T07:58:08.645Z,98961.09
2022-09-23T08:02:20.214Z,98965.38
2022-09-23T08:06:32.252Z,98972.81
2022-09-23T08:10:43.743Z,98973.44
2022-09-23T08:14:55.989Z,98976.03
2022-09-23T08:19:08.406Z,98969.03
2022-09-23T08:23:20.416Z,98968.22
2022-09-23T08:27:32.922Z,98967.91
2022-09-23T08:31:44.431Z,98963.31
2022-09-23T08:36:00.836Z,98949.00
2022-09-23T08:40:12.462Z,98942.56
2022-09-23T08:44:51.111Z,98941.88
2022-09-23T08:49:03.887Z,98942.25
2022-09-23T08:53:24.712Z,98943.44
2022-09-23T08:57:57.386Z,98941.06
2022-09-23T09:02:22.257Z,98939.88
2022-09-23T09:06:52.929Z,98937.66
2022-09-23T09:11:06.402Z,98935.56
2022-09-23T09:15:29.503Z,98936.41
2022-09-23T09:19:57.290Z,98921.34
2022-09-23T09:24:29.161Z,98922.78
2022-09-23T09:28:52.211Z,98916.63
2022-09-23T09:33:13.789Z,98914.75
2022-09-23T09:37:33.568Z,98905.16
2022-09-23T09:41:51.814Z,98897.84
2022-09-23T09:46:03.272Z,98888.78
2022-09-23T09:50:22.015Z,98885.78
2022-09-23T09:54:33.485Z,98889.22
2022-09-23T09:58:51.172Z,98886.13
2022-09-23T10:03:40.550Z,98892.88
2022-09-23T10:07:52.046Z,98886.44
2022-09-23T10:12:13.050Z,98882.41
2022-09-23T10:16:24.604Z,98880.16
2022-09-23T10:20:38.196Z,98875.66
2022-09-23T10:24:53.652Z,98881.59
2022-09-23T10:29:23.835Z,98877.81
2022-09-23T10:33:41.739Z,98863.66
2022-09-23T10:37:55.343Z,98865.13
2022-09-23T10:42:45.748Z,98867.81
2022-09-23T10:47:14.530Z,98865.84
2022-09-23T10:51:35.816Z,98860.59
2022-09-23T10:56:09.481Z,98850.66
2022-09-23T11:00:42.069Z,98845.16
2022-09-23T11:05:15.284Z,98852.84
2022-09-23T11:09:40.820Z,98836.00
2022-09-23T11:14:17.147Z,98836.13
2022-09-23T11:18:45.401Z,98835.63
2022-09-23T11:23:15.079Z,98825.94
2022-09-23T11:27:43.953Z,98826.56
2022-09-23T11:32:23.060Z,98820.25
2022-09-23T11:36:40.233Z,98810.81
2022-09-23T11:41:02.379Z,98807.81
2022-09-23T11:45:20.492Z,98807.34
2022-09-23T11:49:39.308Z,98803.69
2022-09-23T11:53:57.424Z,98805.31
2022-09-23T11:58:25.155Z,98797.25
2022-09-23T12:03:05.937Z,98794.94
2022-09-23T12:07:29.002Z,98805.94
2022-09-23T12:11:53.695Z,98805.22
2022-09-23T12:16:22.902Z,98790.31
2022-09-23T12:21:02.231Z,98778.66
2022-09-23T12:25:29.332Z,98771.44
2022-09-23T12:29:41.395Z,98775.06
2022-09-23T12:33:54.138Z,98766.88
2022-09-23T12:38:29.396Z,98773.41
2022-09-23T12:42:45.796Z,98775.44
2022-09-23T12:47:21.239Z,98773.97
2022-09-23T12:51:34.756Z,98778.13
2022-09-23T12:55:46.934Z,98760.84
2022-09-23T13:00:14.247Z,98761.00
2022-09-23T13:04:53.459Z,98761.59
2022-09-23T13:09:28.690Z,98749.81
2022-09-23T13:13:43.365Z,98746.50
2022-09-23T13:18:20.350Z,98735.47
2022-09-23T13:23:15.542Z,98739.78
2022-09-23T13:27:31.427Z,98734.38
2022-09-23T13:31:43.473Z,98733.13
2022-09-23T13:36:01.474Z,98727.38
2022-09-23T13:40:30.974Z,98719.06
2022-09-23T13:44:42.594Z,98725.03
2022-09-23T13:48:55.434Z,98723.72
2022-09-23T13:53:20.389Z,98721.94
2022-09-23T13:57:34.418Z,98718.84
2022-09-23T14:01:47.005Z,98715.50
2022-09-23T14:06:09.381Z,98713.44
2022-09-23T14:10:26.578Z,98718.00
2022-09-23T14:14:40.952Z,98703.44
2022-09-23T14:18:57.382Z,98702.22
2022-09-23T14:23:15.902Z,98700.25
2022-09-23T14:27:30.815Z,98704.75
2022-09-23T14:31:56.558Z,98695.91
2022-09-23T14:36:31.324Z,98698.81
2022-09-23T14:41:17.148Z,98693.59
2022-09-23T14:45:34.653Z,98685.47
2022-09-23T14:50:08.242Z,98683.69
2022-09-23T14:54:26.522Z,98683.50
2022-09-23T14:58:51.759Z,98680.50
2022-09-23T15:03:14.599Z,98679.06
2022-09-23T15:07:26.679Z,98672.63
2022-09-23T15:11:39.871Z,98677.91
2022-09-23T15:15:53.218Z,98665.50
2022-09-23T15:20:17.919Z,98669.38
2022-09-23T15:24:34.341Z,98668.16
2022-09-23T15:28:47.212Z,98666.59
2022-09-23T15:32:59.763Z,98655.41
2022-09-23T15:37:12.597Z,98644.50
2022-09-23T15:41:24.366Z,98651.19
2022-09-23T15:45:45.582Z,98644.28
2022-09-23T15:49:57.756Z,98642.28
2022-09-23T15:54:12.310Z,98654.25
2022-09-23T15:58:26.010Z,98647.19
2022-09-23T16:02:37.545Z,98652.28
2022-09-23T16:06:49.120Z,98653.34
2022-09-23T16:11:00.620Z,98651.78
2022-09-23T16:15:19.295Z,98639.41
2022-09-23T16:19:35.368Z,98628.75
2022-09-23T16:23:49.884Z,98621.44
2022-09-23T16:28:03.077Z,98634.81
2022-09-23T16:32:16.912Z,98637.88
2022-09-23T16:36:34.206Z,98635.69
2022-09-23T16:40:47.268Z,98637.28
2022-09-23T16:44:58.978Z,98642.97
2022-09-23T16:49:12.029Z,98645.78
2022-09-23T16:53:23.762Z,98641.34
2022-09-23T16:57:39.520Z,98636.69
2022-09-23T17:02:09.853Z,98630.00
2022-09-23T17:06:23.847Z,98636.25
2022-09-23T17:10:35.339Z,98647.34
2022-09-23T17:14:46.859Z,98644.13
2022-09-23T17:18:59.370Z,98643.88
2022-09-23T17:23:10.870Z,98637.53
2022-09-23T17:27:24.786Z,98645.97
2022-09-23T17:31:36.386Z,98650.16
2022-09-23T17:35:47.889Z,98634.53
2022-09-23T17:39:59.816Z,98626.19
2022-09-23T17:44:11.492Z,98646.56
2022-09-23T17:48:25.239Z,98648.91
2022-09-23T17:52:36.806Z,98648.66
2022-09-23T17:56:48.311Z,98641.88
2022-09-23T18:01:00.924Z,98640.00
2022-09-23T18:05:12.471Z,98624.00
2022-09-23T18:09:24.124Z,98629.53
2022-09-23T18:13:35.806Z,98629.69
2022-09-23T18:17:47.297Z,98623.31
2022-09-23T18:22:01.446Z,98630.09
2022-09-23T18:26:17.015Z,98621.91
2022-09-23T18:30:33.426Z,98619.44
2022-09-23T18:34:44.962Z,98623.34
2022-09-23T18:38:56.578Z,98622.84
2022-09-23T18:43:08.485Z,98626.38
2022-09-23T18:47:39.044Z,98632.00
2022-09-23T18:51:53.611Z,98631.03
2022-09-23T18:56:16.047Z,98633.59
2022-09-23T19:00:28.163Z,98629.25
2022-09-23T19:04:39.743Z,98631.16
2022-09-23T19:08:53.610Z,98642.34
2022-09-23T19:13:05.135Z,98639.19
2022-09-23T19:17:16.685Z,98641.00
2022-09-23T19:21:29.358Z,98639.63
2022-09-23T19:25:40.952Z,98634.16
2022-09-23T19:29:52.537Z,98634.56
2022-09-23T19:34:12.376Z,98625.25
2022-09-23T19:38:23.891Z,98618.56
2022-09-23T19:42:35.928Z,98628.06
2022-09-23T19:46:53.382Z,98614.25
2022-09-23T19:51:07.698Z,98621.53
2022-09-23T19:55:19.938Z,98621.72
2022-09-23T19:59:31.469Z,98623.09
2022-09-23T20:03:46.978Z,98610.16
2022-09-23T20:08:01.926Z,98601.31
2022-09-23T20:12:14.174Z,98601.06
2022-09-23T20:16:26.629Z,98614.50
2022-09-23T20:20:38.193Z,98611.25
2022-09-23T20:24:49.680Z,98618.78
2022-09-23T20:29:01.427Z,98606.72
2022-09-23T20:33:15.867Z,98597.41
2022-09-23T20:37:27.397Z,98606.44
2022-09-23T20:41:39.607Z,98601.41
2022-09-23T20:45:52.526Z,98605.16
2022-09-23T20:50:04.280Z,98597.31
2022-09-23T20:54:21.665Z,98593.25
2022-09-23T20:58:37.115Z,98590.47
2022-09-23T21:02:48.591Z,98594.78
2022-09-23T21:07:01.003Z,98593.63
2022-09-23T21:11:15.335Z,98591.00
2022-09-23T21:15:27.869Z,98590.91
2022-09-23T21:19:39.956Z,98594.31
2022-09-23T21:23:51.476Z,98591.25
2022-09-23T21:28:03.516Z,98589.78
